San Esteban, Argentina
Current Conditions -  °F | °C
As of 3:00 PM on Thursday 18 Dec 2014 (Local Time) from SACO Reporting Station
Few Clouds Few Clouds  
Wind Chill: 86°   Ceiling: Unl
Heat Index: 86°   Visibility: 6mi
Dew Point: 52°   Wind: 13mph
Humidity: 31%   Direction: 20°NNE
Pressure: 29.91"   Gusts: NA
Location:  30.92°S, 64.55°W
Report Text: SACO 181800Z 02011KT 9999 FEW030TCU 30/11 Q1013
Loading
Personal Weather Stations






























Interactive Weather Map New forecast layout! Learn more

10-Day Weather Forecast

Advertisements
Track Severe Weather on mobile